Corning, Arkansas
Current Conditions -  °F | °C
As of 6:55 PM on Wednesday 22 Oct 2014 (Local Time) from K4M9 Reporting Station
Haze Haze  
Wind Chill: 55°   Ceiling: Unl
Heat Index: 55°   Visibility: 5mi
Dew Point: 43°   Wind: 8mph
Humidity: 63%   Direction: 60°ENE
Pressure: 30.2"   Gusts: NA
Location:  36.41°N, 90.58°W
Report Text: K4M9 222355Z AUTO 06007KT 5SM HZ CLR 13/06 A3020 RMK AO2
Loading
Personal Weather Stations






























Interactive Weather Map
Tropical Storm Tracking
New forecast layout! Learn more

10-Day Weather Forecast

Advertisements
Track Severe Weather on mobile